N434AB KHSV-KHSV
Flight info
| Callsign | N434AB |
|---|---|
| Flight time | 0h 12m |
| Altitude | 2500 |
| Route | PATTERN AND ILS PRACTICE |
| Aircraft | C172/L-S/L |
Departure
| Time | 2026-04-21 01:01 |
|---|---|
| Airport | Huntsville International Airport (KHSV) |
Arrival
| Time | 2026-04-21 01:13 |
|---|---|
| Airport | Huntsville International Airport (KHSV) |
| Time | Latitude | Longitude | Altitude | Speed | Heading |
|---|---|---|---|---|---|
| 2026-04-21 00:45 | 34.64735 | -86.77063 | 628 ft | 0 kts | 93° |
| 2026-04-21 00:52 | 34.64727 | -86.77056 | 632 ft | 4 kts | 188° |
| 2026-04-21 00:53 | 34.64694 | -86.77085 | 631 ft | 7 kts | 181° |
| 2026-04-21 00:53 | 34.64673 | -86.77034 | 628 ft | 8 kts | 89° |
| 2026-04-21 00:53 | 34.64694 | -86.76995 | 635 ft | 5 kts | 3° |
| 2026-04-21 00:53 | 34.64728 | -86.76994 | 631 ft | 5 kts | 360° |
| 2026-04-21 00:54 | 34.64766 | -86.76993 | 631 ft | 6 kts | 2° |
| 2026-04-21 00:54 | 34.64812 | -86.76992 | 632 ft | 8 kts | 358° |
| 2026-04-21 00:54 | 34.64835 | -86.76949 | 634 ft | 6 kts | 94° |
| 2026-04-21 00:54 | 34.64834 | -86.76901 | 635 ft | 6 kts | 90° |
| 2026-04-21 00:55 | 34.64834 | -86.76835 | 637 ft | 11 kts | 91° |
| 2026-04-21 00:55 | 34.64827 | -86.76741 | 639 ft | 10 kts | 114° |
| 2026-04-21 00:55 | 34.64797 | -86.76710 | 640 ft | 8 kts | 166° |
| 2026-04-21 00:55 | 34.64744 | -86.76708 | 640 ft | 8 kts | 180° |
| 2026-04-21 00:56 | 34.64682 | -86.76710 | 640 ft | 10 kts | 184° |
| 2026-04-21 00:56 | 34.64570 | -86.76713 | 637 ft | 15 kts | 182° |
| 2026-04-21 00:56 | 34.64491 | -86.76712 | 634 ft | 19 kts | 181° |
| 2026-04-21 00:56 | 34.64358 | -86.76716 | 630 ft | 18 kts | 181° |
| 2026-04-21 00:57 | 34.64240 | -86.76717 | 629 ft | 16 kts | 178° |
| 2026-04-21 00:57 | 34.64137 | -86.76719 | 627 ft | 15 kts | 183° |
| 2026-04-21 00:57 | 34.64038 | -86.76724 | 625 ft | 14 kts | 181° |
| 2026-04-21 00:57 | 34.63952 | -86.76726 | 625 ft | 11 kts | 181° |
| 2026-04-21 00:58 | 34.63884 | -86.76728 | 627 ft | 9 kts | 183° |
| 2026-04-21 00:58 | 34.63827 | -86.76733 | 628 ft | 7 kts | 178° |
| 2026-04-21 00:58 | 34.63779 | -86.76729 | 629 ft | 7 kts | 177° |
| 2026-04-21 00:58 | 34.63735 | -86.76725 | 629 ft | 6 kts | 163° |
| 2026-04-21 00:59 | 34.63708 | -86.76703 | 629 ft | 4 kts | 119° |
| 2026-04-21 00:59 | 34.63701 | -86.76648 | 630 ft | 10 kts | 91° |
| 2026-04-21 00:59 | 34.63749 | -86.76578 | 628 ft | 15 kts | 1° |
| 2026-04-21 00:59 | 34.63924 | -86.76575 | 627 ft | 40 kts | 359° |
| 2026-04-21 01:00 | 34.64335 | -86.76568 | 637 ft | 73 kts | 359° |
| 2026-04-21 01:00 | 34.64882 | -86.76555 | 735 ft | 84 kts | 357° |
| 2026-04-21 01:00 | 34.65491 | -86.76544 | 862 ft | 94 kts | 0° |
| 2026-04-21 01:00 | 34.65960 | -86.76063 | 1046 ft | 101 kts | 83° |
| 2026-04-21 01:01 | 34.65822 | -86.75269 | 1274 ft | 98 kts | 134° |
| 2026-04-21 01:01 | 34.65211 | -86.74954 | 1381 ft | 102 kts | 174° |
| 2026-04-21 01:01 | 34.64496 | -86.74877 | 1427 ft | 103 kts | 180° |
| 2026-04-21 01:01 | 34.63773 | -86.74855 | 1465 ft | 102 kts | 182° |
| 2026-04-21 01:02 | 34.63072 | -86.74870 | 1479 ft | 100 kts | 185° |
| 2026-04-21 01:02 | 34.62394 | -86.74930 | 1466 ft | 100 kts | 187° |
| 2026-04-21 01:02 | 34.61791 | -86.75162 | 1403 ft | 85 kts | 235° |
| 2026-04-21 01:02 | 34.61694 | -86.75851 | 1228 ft | 83 kts | 277° |
| 2026-04-21 01:03 | 34.62007 | -86.76405 | 973 ft | 86 kts | 323° |
| 2026-04-21 01:03 | 34.62561 | -86.76614 | 720 ft | 86 kts | 1° |
| 2026-04-21 01:03 | 34.63065 | -86.76595 | 626 ft | 57 kts | 1° |
| 2026-04-21 01:03 | 34.63481 | -86.76587 | 639 ft | 71 kts | 1° |
| 2026-04-21 01:04 | 34.64013 | -86.76574 | 747 ft | 78 kts | 357° |
| 2026-04-21 01:04 | 34.64555 | -86.76563 | 888 ft | 80 kts | 358° |
| 2026-04-21 01:04 | 34.65116 | -86.76564 | 1002 ft | 87 kts | 357° |
| 2026-04-21 01:04 | 34.65711 | -86.76364 | 1183 ft | 95 kts | 45° |
| 2026-04-21 01:05 | 34.65930 | -86.75588 | 1309 ft | 105 kts | 92° |
| 2026-04-21 01:05 | 34.65596 | -86.74865 | 1429 ft | 105 kts | 154° |
| 2026-04-21 01:05 | 34.64862 | -86.74779 | 1408 ft | 112 kts | 188° |
| 2026-04-21 01:05 | 34.64063 | -86.74864 | 1356 ft | 117 kts | 188° |
| 2026-04-21 01:06 | 34.63239 | -86.74848 | 1330 ft | 116 kts | 179° |
| 2026-04-21 01:06 | 34.62448 | -86.74828 | 1300 ft | 111 kts | 183° |
| 2026-04-21 01:06 | 34.61679 | -86.74828 | 1319 ft | 110 kts | 181° |
| 2026-04-21 01:06 | 34.60937 | -86.74899 | 1396 ft | 102 kts | 210° |
| 2026-04-21 01:07 | 34.60682 | -86.75571 | 1447 ft | 93 kts | 270° |
| 2026-04-21 01:07 | 34.60768 | -86.76323 | 1347 ft | 84 kts | 301° |
| 2026-04-21 01:07 | 34.61259 | -86.76615 | 1155 ft | 78 kts | 358° |
| 2026-04-21 01:07 | 34.61761 | -86.76612 | 909 ft | 69 kts | 356° |
| 2026-04-21 01:08 | 34.62217 | -86.76604 | 714 ft | 63 kts | 358° |
| 2026-04-21 01:08 | 34.62647 | -86.76598 | 616 ft | 61 kts | 359° |
| 2026-04-21 01:08 | 34.63064 | -86.76593 | 625 ft | 65 kts | 358° |
| 2026-04-21 01:08 | 34.63539 | -86.76583 | 675 ft | 70 kts | 359° |
| 2026-04-21 01:09 | 34.64035 | -86.76561 | 750 ft | 76 kts | 358° |
| 2026-04-21 01:09 | 34.64632 | -86.76566 | 850 ft | 88 kts | 359° |
| 2026-04-21 01:09 | 34.65237 | -86.76542 | 1062 ft | 86 kts | 0° |
| 2026-04-21 01:09 | 34.65778 | -86.76292 | 1243 ft | 92 kts | 63° |
| 2026-04-21 01:10 | 34.65836 | -86.75513 | 1413 ft | 93 kts | 98° |
| 2026-04-21 01:10 | 34.65460 | -86.74957 | 1590 ft | 90 kts | 175° |
| 2026-04-21 01:10 | 34.64792 | -86.74897 | 1603 ft | 98 kts | 181° |
| 2026-04-21 01:10 | 34.64113 | -86.74884 | 1616 ft | 99 kts | 184° |
| 2026-04-21 01:11 | 34.63412 | -86.74872 | 1626 ft | 101 kts | 180° |
| 2026-04-21 01:11 | 34.62709 | -86.74836 | 1643 ft | 102 kts | 182° |
| 2026-04-21 01:11 | 34.62006 | -86.74826 | 1653 ft | 101 kts | 185° |
| 2026-04-21 01:11 | 34.61475 | -86.75166 | 1689 ft | 82 kts | 255° |
| 2026-04-21 01:12 | 34.61435 | -86.75863 | 1521 ft | 82 kts | 271° |
| 2026-04-21 01:12 | 34.61549 | -86.76480 | 1315 ft | 73 kts | 309° |
| 2026-04-21 01:12 | 34.62022 | -86.76607 | 955 ft | 76 kts | 342° |
| 2026-04-21 01:12 | 34.62529 | -86.76600 | 696 ft | 69 kts | 355° |
| 2026-04-21 01:13 | 34.62933 | -86.76599 | 621 ft | 36 kts | 2° |
| 2026-04-21 01:13 | 34.63108 | -86.76593 | 627 ft | 20 kts | 2° |
| 2026-04-21 01:13 | 34.63224 | -86.76590 | 630 ft | 14 kts | 1° |
| 2026-04-21 01:13 | 34.63312 | -86.76587 | 631 ft | 13 kts | 0° |
| 2026-04-21 01:14 | 34.63401 | -86.76587 | 630 ft | 12 kts | 351° |
| 2026-04-21 01:14 | 34.63441 | -86.76646 | 632 ft | 8 kts | 270° |
| 2026-04-21 01:14 | 34.63447 | -86.76700 | 632 ft | 6 kts | 297° |
| 2026-04-21 01:14 | 34.63480 | -86.76730 | 635 ft | 9 kts | 346° |
| 2026-04-21 01:15 | 34.63563 | -86.76731 | 629 ft | 14 kts | 1° |
| 2026-04-21 01:15 | 34.63657 | -86.76728 | 628 ft | 12 kts | 2° |
| 2026-04-21 01:15 | 34.63747 | -86.76728 | 629 ft | 14 kts | 3° |
| 2026-04-21 01:15 | 34.63859 | -86.76726 | 628 ft | 18 kts | 1° |
| 2026-04-21 01:16 | 34.64001 | -86.76721 | 625 ft | 23 kts | 1° |
| 2026-04-21 01:16 | 34.64145 | -86.76719 | 630 ft | 18 kts | 358° |
| 2026-04-21 01:16 | 34.64250 | -86.76717 | 630 ft | 13 kts | 359° |
| 2026-04-21 01:16 | 34.64331 | -86.76715 | 630 ft | 12 kts | 2° |
| 2026-04-21 01:17 | 34.64445 | -86.76713 | 632 ft | 16 kts | 1° |
| 2026-04-21 01:17 | 34.64538 | -86.76710 | 636 ft | 10 kts | 4° |
| 2026-04-21 01:17 | 34.64620 | -86.76710 | 639 ft | 17 kts | 359° |
| 2026-04-21 01:17 | 34.64774 | -86.76707 | 640 ft | 21 kts | 0° |
| 2026-04-21 01:18 | 34.64834 | -86.76797 | 637 ft | 15 kts | 270° |
| 2026-04-21 01:18 | 34.64835 | -86.76928 | 635 ft | 16 kts | 272° |
| 2026-04-21 01:18 | 34.64837 | -86.77057 | 630 ft | 13 kts | 257° |
| 2026-04-21 01:18 | 34.64760 | -86.77083 | 628 ft | 11 kts | 185° |
| 2026-04-21 01:19 | 34.64743 | -86.77052 | 629 ft | 0 kts | 94° |